Time;durP1;ratioP1;P1;durP2;ratioP2;P2;SDS_P1;SDS_P2;PMS_P1;PMS_P2;Temp;Humidity;BMP_temperature;BMP_pressure;BME280_temperature;BME280_humidity;BME280_pressure;Samples;Min_cycle;Max_cycle;Signal;HPM_P1;HPM_P2
2021/05/11 00:02:19;;;;;;;16.60;12.57;;;;;;;7.83;63.53;101042.31;1681986;81;21171;-90
2021/05/11 00:04:47;;;;;;;21.57;13.30;;;;;;;7.79;64.06;101040.96;1675917;84;21297;-92
2021/05/11 00:07:17;;;;;;;17.50;13.60;;;;;;;7.78;64.53;101032.17;1681624;84;21223;-92
2021/05/11 00:09:45;;;;;;;19.43;14.57;;;;;;;7.85;64.40;101032.88;1689326;84;21232;-93
2021/05/11 00:12:13;;;;;;;19.80;15.10;;;;;;;7.86;64.53;101027.92;1661132;84;22141;-91
2021/05/11 00:14:41;;;;;;;16.90;14.63;;;;;;;7.83;64.82;101022.91;1665859;84;21218;-93
2021/05/11 00:17:08;;;;;;;19.60;13.97;;;;;;;7.80;65.18;101025.39;1675152;85;21188;-92
2021/05/11 00:19:36;;;;;;;15.90;13.93;;;;;;;7.75;65.53;101023.68;1673888;84;21686;-93
2021/05/11 00:22:03;;;;;;;17.17;14.53;;;;;;;7.69;66.15;101017.16;1674425;84;21202;-91
2021/05/11 00:24:31;;;;;;;18.40;13.67;;;;;;;7.61;66.33;101017.10;1648167;86;21228;-94
2021/05/11 00:26:58;;;;;;;20.37;13.97;;;;;;;7.64;66.58;101014.13;1619354;87;21830;-92
2021/05/11 00:29:26;;;;;;;21.17;15.03;;;;;;;7.69;66.43;101011.03;1658955;85;21829;-93
2021/05/11 00:31:53;;;;;;;18.67;13.70;;;;;;;7.68;66.52;101007.52;1672572;84;21760;-93
2021/05/11 00:34:20;;;;;;;16.17;13.57;;;;;;;7.60;66.65;100997.67;1620534;87;21325;-93
2021/05/11 00:36:48;;;;;;;18.10;13.37;;;;;;;7.56;66.76;101000.80;1645958;85;21354;-93
2021/05/11 00:39:17;;;;;;;20.60;14.03;;;;;;;7.52;67.03;101001.59;1607504;87;21355;-93
2021/05/11 00:41:47;;;;;;;19.80;13.40;;;;;;;7.46;67.14;101007.98;1633385;86;21402;-93
2021/05/11 00:44:25;;;;;;;18.37;12.77;;;;;;;7.39;67.13;101007.77;1634732;84;21249;-91
2021/05/11 00:47:04;;;;;;;16.07;13.27;;;;;;;7.39;66.96;100995.84;1681518;84;21379;-94
2021/05/11 00:49:36;;;;;;;17.47;12.40;;;;;;;7.48;66.70;101006.87;1673146;83;21253;-93
2021/05/11 00:52:08;;;;;;;16.23;14.07;;;;;;;7.50;66.51;101002.24;1680214;84;21790;-94
2021/05/11 00:54:37;;;;;;;18.20;14.50;;;;;;;7.47;66.50;101001.20;1679125;84;21309;-92
2021/05/11 00:57:05;;;;;;;18.30;13.40;;;;;;;7.47;66.44;101000.38;1684697;85;21198;-93
2021/05/11 00:59:41;;;;;;;17.37;12.53;;;;;;;7.47;66.27;100999.87;1683153;83;21191;-93
2021/05/11 01:02:10;;;;;;;15.17;12.40;;;;;;;7.46;66.18;100999.56;1667664;83;21162;-92
2021/05/11 01:04:38;;;;;;;16.63;13.67;;;;;;;7.43;66.30;100987.91;1659472;84;21223;-93
2021/05/11 01:07:06;;;;;;;17.53;12.80;;;;;;;7.38;66.26;100984.88;1665123;84;21222;-94
2021/05/11 01:09:35;;;;;;;19.00;13.70;;;;;;;7.39;66.20;100984.73;1661540;84;21233;-93
2021/05/11 01:14:19;;;;;;;13.60;11.67;;;;;;;7.52;65.78;100987.50;1782795;77;23106;-91
2021/05/11 01:16:53;;;;;;;16.97;13.37;;;;;;;7.47;65.66;100995.08;1736497;79;21349;-92
2021/05/11 01:24:39;;;;;;;14.47;12.97;;;;;;;7.30;66.17;100994.09;1665563;84;21326;-92
2021/05/11 01:27:14;;;;;;;14.43;12.63;;;;;;;7.24;66.18;100992.05;1671190;84;21241;-92
2021/05/11 01:32:36;;;;;;;17.43;11.20;;;;;;;7.19;66.43;100993.80;1664897;84;21371;-94
2021/05/11 02:23:34;;;;;;;11.30;10.20;;;;;;;7.25;64.38;100993.70;1671298;83;21116;-92
2021/05/11 02:26:02;;;;;;;12.13;9.90;;;;;;;7.18;64.37;100989.00;1671261;85;21209;-92
2021/05/11 02:28:31;;;;;;;9.87;8.87;;;;;;;7.14;64.24;100989.44;1670722;84;21859;-92
2021/05/11 02:30:58;;;;;;;10.47;9.13;;;;;;;7.16;64.23;100990.98;1662095;84;21223;-93
2021/05/11 02:33:26;;;;;;;10.67;9.03;;;;;;;7.08;64.03;100954.26;1672415;84;21222;-93
2021/05/11 02:35:55;;;;;;;10.17;9.10;;;;;;;7.36;63.77;100985.02;1618248;86;21722;-93
2021/05/11 02:38:23;;;;;;;9.67;8.70;;;;;;;7.38;63.74;100984.88;1625867;86;21229;-92
2021/05/11 02:40:51;;;;;;;10.83;9.00;;;;;;;7.39;63.65;100990.53;1615382;87;21176;-92
2021/05/11 02:43:25;;;;;;;9.57;8.27;;;;;;;7.38;63.49;100991.50;1669231;83;21821;-92
2021/05/11 02:45:50;;;;;;;12.37;8.83;;;;;;;7.37;63.43;100984.55;1647408;85;21604;-93
2021/05/11 02:48:19;;;;;;;10.30;9.17;;;;;;;7.36;63.40;100975.73;1650086;86;21733;-92
2021/05/11 02:50:48;;;;;;;12.27;9.23;;;;;;;7.41;63.40;100980.60;1657892;86;21177;-93
2021/05/11 02:53:16;;;;;;;9.63;8.67;;;;;;;7.49;63.43;100985.97;1667685;84;21200;-93
2021/05/11 02:55:43;;;;;;;9.73;8.73;;;;;;;7.72;63.62;100982.84;1686436;83;21119;-92
2021/05/11 02:58:12;;;;;;;12.27;9.07;;;;;;;8.26;63.49;100980.89;1683496;83;21179;-92
2021/05/11 03:00:41;;;;;;;8.63;7.73;;;;;;;9.05;62.21;100976.27;1670619;84;21188;-91
2021/05/11 03:03:09;;;;;;;10.47;9.47;;;;;;;9.85;60.53;100972.15;1689610;83;21176;-90
2021/05/11 03:05:37;;;;;;;9.17;8.27;;;;;;;10.60;58.54;100970.49;1697320;83;21199;-92
2021/05/11 03:08:04;;;;;;;10.83;8.70;;;;;;;11.29;56.80;100967.95;1701065;83;21361;-91
2021/05/11 03:10:32;;;;;;;11.43;7.13;;;;;;;11.99;54.50;100967.39;1677272;84;21211;-92
2021/05/11 03:13:00;;;;;;;7.70;6.40;;;;;;;12.73;52.21;100959.05;1666573;84;21194;-91
2021/05/11 03:15:27;;;;;;;7.00;6.10;;;;;;;13.42;50.01;100965.28;1659574;84;21178;-91
2021/05/11 03:17:56;;;;;;;6.37;5.83;;;;;;;14.07;46.36;100959.81;1659042;84;21653;-91
2021/05/11 03:20:25;;;;;;;8.95;5.92;;;;;;;14.59;44.37;100957.97;1661759;84;21192;-91
2021/05/11 03:22:52;;;;;;;5.55;5.12;;;;;;;15.02;42.88;100958.75;1669240;84;21815;-91
2021/05/11 03:25:20;;;;;;;5.92;5.40;;;;;;;15.35;41.58;100956.11;1667315;84;21224;-90
2021/05/11 03:27:47;;;;;;;6.97;4.90;;;;;;;15.62;40.22;100956.98;1693220;84;21215;-91
2021/05/11 03:30:15;;;;;;;4.67;4.28;;;;;;;15.67;39.64;100920.06;1685236;84;21400;-91
2021/05/11 03:32:42;;;;;;;4.80;4.35;;;;;;;16.12;37.22;100946.63;1658796;84;21187;-91
2021/05/11 03:35:10;;;;;;;4.65;4.35;;;;;;;16.24;36.87;100948.67;1683365;83;21156;-91
2021/05/11 03:37:38;;;;;;;5.33;4.37;;;;;;;16.34;37.37;100955.25;1687359;83;21204;-92
2021/05/11 03:40:06;;;;;;;6.45;4.30;;;;;;;16.50;37.33;100955.81;1695940;83;21370;-91
2021/05/11 03:42:51;;;;;;;4.97;4.15;;;;;;;16.73;37.26;100956.68;1676198;83;21406;-91
2021/05/11 03:45:12;;;;;;;6.20;3.95;;;;;;;16.99;36.06;100957.60;1693027;83;21160;-92
2021/05/11 03:48:06;;;;;;;4.17;3.85;;;;;;;17.29;35.10;100953.79;1760993;79;23099;-91
2021/05/11 03:50:46;;;;;;;7.12;4.33;;;;;;;17.44;35.29;100957.52;1810832;78;23041;-90
2021/05/11 03:53:20;;;;;;;5.25;4.75;;;;;;;17.58;35.02;100956.38;1769420;80;22903;-91
2021/05/11 03:56:01;;;;;;;9.03;5.33;;;;;;;17.66;34.93;100962.02;1848036;76;22994;-92
2021/05/11 03:58:35;;;;;;;5.10;4.30;;;;;;;17.84;34.19;100952.67;1837866;77;23513;-91
2021/05/11 04:01:19;;;;;;;5.78;4.33;;;;;;;18.16;34.05;100949.03;1710951;79;22684;-92
2021/05/11 04:04:23;;;;;;;;;;;;;;;;;;;;;
2021/05/11 04:07:10;;;;;;;6.55;4.33;;;;;;;18.80;32.95;100955.80;1780492;79;22968;-91
2021/05/11 04:09:56;;;;;;;7.37;5.15;;;;;;;19.04;32.44;100951.83;1809670;77;23081;-90
2021/05/11 04:13:09;;;;;;;6.85;4.75;;;;;;;19.32;31.56;100961.20;1835742;74;28341;-90
2021/05/11 04:18:37;;;;;;;6.42;4.03;;;;;;;20.07;29.65;100957.90;1769876;79;23136;-92
2021/05/11 04:21:18;;;;;;;8.10;4.12;;;;;;;20.08;29.32;100960.06;1804273;78;23249;-91
2021/05/11 04:24:12;;;;;;;5.28;4.05;;;;;;;19.89;29.05;100960.72;1763012;78;23808;-91
2021/05/11 04:26:45;;;;;;;6.47;3.42;;;;;;;19.21;29.38;100954.20;1768587;79;23047;-92
2021/05/11 04:29:21;;;;;;;6.15;3.40;;;;;;;18.69;30.15;100956.53;1809614;77;22928;-90
2021/05/11 04:32:01;;;;;;;5.20;4.08;;;;;;;18.66;30.34;100954.28;1818393;78;22985;-92
2021/05/11 04:34:42;;;;;;;4.72;3.87;;;;;;;18.72;30.32;100952.02;1792016;77;22826;-89
2021/05/11 04:37:16;;;;;;;4.28;3.70;;;;;;;18.61;30.41;100948.22;1818200;77;23094;-90
2021/05/11 04:39:53;;;;;;;4.15;3.65;;;;;;;18.65;30.07;100947.25;1761510;79;23103;-91
2021/05/11 04:42:26;;;;;;;3.70;3.27;;;;;;;18.83;29.67;100944.52;1782479;79;28324;-89
2021/05/11 04:45:22;;;;;;;2.90;2.70;;;;;;;19.18;29.04;100941.67;1794967;76;23030;-89
2021/05/11 04:48:03;;;;;;;3.22;2.67;;;;;;;19.26;28.73;100938.63;1816957;79;23046;-89
2021/05/11 04:50:37;;;;;;;3.40;2.42;;;;;;;19.20;28.21;100940.38;1797653;77;22983;-89
2021/05/11 04:53:16;;;;;;;3.12;2.70;;;;;;;19.22;28.33;100938.80;1832618;77;23543;-90
2021/05/11 04:55:53;;;;;;;3.75;2.67;;;;;;;19.27;27.84;100932.18;1756345;79;28900;-89
2021/05/11 04:58:34;;;;;;;2.55;2.37;;;;;;;19.34;27.54;100927.47;1812126;79;23022;-89
2021/05/11 05:01:28;;;;;;;2.12;2.02;;;;;;;19.38;27.99;100925.98;1775487;78;22924;-89
2021/05/11 05:04:11;;;;;;;2.00;1.47;;;;;;;19.47;27.46;100923.73;1805570;79;23085;-88
2021/05/11 05:06:51;;;;;;;3.77;1.80;;;;;;;19.38;28.10;100924.63;1824437;77;23040;-88
2021/05/11 05:09:24;;;;;;;1.65;1.55;;;;;;;19.16;28.09;100868.94;1801967;79;23127;-89
2021/05/11 05:12:06;;;;;;;2.37;1.47;;;;;;;19.73;28.56;100920.33;1748901;78;23113;-88
2021/05/11 05:14:41;;;;;;;1.30;1.02;;;;;;;19.94;26.37;100922.43;1825676;77;23100;-88
2021/05/11 05:17:15;;;;;;;3.47;1.72;;;;;;;19.76;26.63;100921.20;1855825;75;23099;-88
2021/05/11 05:19:55;;;;;;;2.80;1.82;;;;;;;19.55;27.43;100917.16;1777189;78;22996;-86
2021/05/11 05:22:29;;;;;;;2.30;1.30;;;;;;;19.45;27.33;100919.09;1810392;77;22925;-89
2021/05/11 05:25:16;;;;;;;4.25;1.75;;;;;;;19.26;27.59;100912.95;1765387;79;23154;-89
2021/05/11 05:27:59;;;;;;;1.92;1.62;;;;;;;19.13;27.37;100917.21;1814070;77;23680;-86
2021/05/11 05:31:01;;;;;;;1.77;1.35;;;;;;;18.93;27.55;100912.09;1841552;77;24301;-88
2021/05/11 05:33:37;;;;;;;3.00;0.95;;;;;;;18.84;28.01;100915.13;1783981;77;23495;-89
2021/05/11 05:36:21;;;;;;;5.00;1.70;;;;;;;18.86;27.69;100912.20;1836116;77;23619;-88
2021/05/11 05:39:16;;;;;;;4.67;1.47;;;;;;;18.83;27.74;100913.46;1788889;78;23663;-89
2021/05/11 05:41:50;;;;;;;2.62;1.57;;;;;;;18.72;27.86;100904.76;1817668;77;23071;-87
2021/05/11 05:44:43;;;;;;;2.85;1.57;;;;;;;18.96;28.32;100901.66;1766931;78;23126;-91
2021/05/11 05:47:23;;;;;;;1.20;1.10;;;;;;;19.21;27.89;100902.01;1797994;79;23052;-86
2021/05/11 05:50:05;;;;;;;2.25;1.47;;;;;;;19.35;29.15;100908.05;1847359;75;23498;-87
2021/05/11 05:53:02;;;;;;;1.95;1.17;;;;;;;19.69;27.51;100905.61;1866178;74;28607;-89
2021/05/11 05:55:57;;;;;;;3.37;1.37;;;;;;;20.32;26.93;100904.83;1788014;78;23375;-87
2021/05/11 05:58:32;;;;;;;3.62;1.47;;;;;;;20.65;26.17;100895.78;1774478;79;22945;-86
2021/05/11 06:01:08;;;;;;;3.00;1.62;;;;;;;20.61;26.46;100894.08;1783728;78;28006;-88
2021/05/11 06:04:00;;;;;;;2.92;1.37;;;;;;;20.69;26.17;100890.16;1812926;77;23021;-87
2021/05/11 06:06:42;;;;;;;3.52;1.60;;;;;;;20.84;25.84;100895.86;1835172;77;22919;-87
2021/05/11 06:09:19;;;;;;;3.52;2.20;;;;;;;20.59;26.48;100895.64;1796771;79;23083;-89
2021/05/11 06:12:06;;;;;;;5.25;2.02;;;;;;;20.26;28.19;100888.74;1776704;79;23502;-88
2021/05/11 06:17:26;;;;;;;4.70;2.00;;;;;;;19.97;27.80;100908.44;1826616;77;22827;-88
2021/05/11 06:20:09;;;;;;;6.20;1.60;;;;;;;19.87;28.05;100906.84;1773372;79;23087;-88
2021/05/11 06:22:50;;;;;;;4.10;1.65;;;;;;;19.86;28.38;100905.21;1799174;78;23548;-89
2021/05/11 06:25:45;;;;;;;3.10;1.10;;;;;;;19.97;27.24;100909.80;1798797;78;22957;-87
2021/05/11 06:28:25;;;;;;;0.93;0.62;;;;;;;20.07;27.05;100905.13;1788091;79;23088;-89
2021/05/11 06:31:00;;;;;;;2.75;0.55;;;;;;;20.24;27.15;100903.86;1795737;77;22918;-88
2021/05/11 06:33:42;;;;;;;0.82;0.60;;;;;;;20.56;26.39;100900.17;1747360;79;23109;-89
2021/05/11 06:36:22;;;;;;;3.02;0.45;;;;;;;20.70;25.19;100891.28;1798922;77;23098;-87
2021/05/11 06:39:10;;;;;;;1.07;0.35;;;;;;;20.68;26.02;100893.92;1776151;78;23805;-90
2021/05/11 06:42:04;;;;;;;4.95;1.00;;;;;;;20.70;24.12;100895.85;1796848;79;22925;-88
2021/05/11 06:45:28;;;;;;;1.82;0.60;;;;;;;20.54;24.17;100888.77;1757700;78;23017;-90
2021/05/11 06:50:37;;;;;;;1.30;0.50;;;;;;;21.26;22.95;100887.36;1827356;76;28831;-90
2021/05/11 06:53:14;;;;;;;0.80;0.30;;;;;;;21.34;23.22;100888.33;1763456;80;23547;-89
2021/05/11 06:55:50;;;;;;;1.22;0.37;;;;;;;21.35;24.23;100883.72;1756863;80;23511;-89
2021/05/11 06:58:28;;;;;;;1.32;0.53;;;;;;;21.04;23.70;100876.45;1855092;76;22525;-89
2021/05/11 07:14:31;;;;;;;1.70;0.30;;;;;;;20.95;21.50;100865.71;1823821;76;22963;-89
2021/05/11 07:17:04;;;;;;;2.70;0.62;;;;;;;20.72;21.95;100876.11;1809527;79;23511;-90
2021/05/11 07:19:38;;;;;;;2.05;0.40;;;;;;;20.54;22.73;100873.06;1808093;77;23117;-87
2021/05/11 07:22:18;;;;;;;1.00;0.60;;;;;;;20.32;22.39;100869.64;1794107;77;23095;-90
2021/05/11 07:24:55;;;;;;;2.92;0.82;;;;;;;20.14;23.31;100859.01;1762182;80;23139;-90
2021/05/11 07:30:45;;;;;;;1.95;0.47;;;;;;;19.98;23.33;100865.97;1794557;77;23535;-90
2021/05/11 07:36:35;;;;;;;0.53;0.53;;;;;;;19.58;24.20;100855.33;1791369;79;23545;-89
2021/05/11 07:39:13;;;;;;;0.72;0.40;;;;;;;19.51;24.59;100847.05;1764689;79;23109;-90
2021/05/11 07:41:49;;;;;;;0.57;0.47;;;;;;;19.55;24.01;100841.45;1731713;80;23003;-89
2021/05/11 07:44:30;;;;;;;1.75;0.42;;;;;;;19.68;23.84;100829.58;1802360;76;23042;-92
2021/05/11 07:47:13;;;;;;;2.95;0.50;;;;;;;19.67;23.50;100823.35;1765632;79;23137;-91
2021/05/11 08:30:04;;;;;;;5.35;0.40;;;;;;;19.71;27.95;100810.19;1790179;78;23107;-91
2021/05/11 08:32:58;;;;;;;1.32;0.55;;;;;;;19.75;27.27;100807.33;1824388;77;23218;-90
2021/05/11 08:35:37;;;;;;;3.45;0.53;;;;;;;19.73;27.60;100808.09;1762781;79;22981;-91
2021/05/11 08:38:13;;;;;;;0.72;0.30;;;;;;;19.69;27.93;100798.24;1785822;79;23575;-90
2021/05/11 08:40:58;;;;;;;4.25;0.50;;;;;;;19.67;28.37;100799.02;1733966;80;22372;-89
2021/05/11 08:43:44;;;;;;;1.17;0.50;;;;;;;19.74;27.80;100792.98;1798638;78;23104;-90
2021/05/11 08:46:19;;;;;;;1.17;0.62;;;;;;;19.73;27.56;100795.92;1764643;78;22984;-92
2021/05/11 08:49:15;;;;;;;0.93;0.85;;;;;;;19.77;27.76;100790.32;1791405;78;23183;-92
2021/05/11 09:09:38;;;;;;;2.00;0.40;;;;;;;20.11;27.96;100768.81;1771978;79;22451;-90
2021/05/11 09:24:57;;;;;;;1.82;0.65;;;;;;;20.25;26.75;100744.47;1801394;76;22878;-91
2021/05/11 09:52:27;;;;;;;2.30;0.55;;;;;;;20.28;27.50;100703.91;1798321;78;23455;-91
2021/05/11 09:55:13;;;;;;;2.50;0.53;;;;;;;20.36;27.39;100709.75;1782906;78;23091;-92
2021/05/11 09:58:08;;;;;;;3.08;0.78;;;;;;;20.46;27.55;100716.41;1776576;78;38439;-93
2021/05/11 10:54:13;;;;;;;6.12;0.37;;;;;;;20.55;27.62;100654.83;1790778;78;22977;-93
2021/05/11 10:56:59;;;;;;;1.37;0.50;;;;;;;20.50;27.86;100641.73;1754140;79;23021;-91
2021/05/11 11:00:15;;;;;;;1.10;0.40;;;;;;;20.56;27.47;100642.09;1777596;78;28222;-93
2021/05/11 11:14:08;;;;;;;4.87;0.23;;;;;;;20.90;27.87;100639.38;1794684;79;23112;-92
2021/05/11 11:17:04;;;;;;;0.45;0.30;;;;;;;20.88;28.14;100632.03;1766899;80;21164;-92
2021/05/11 11:19:54;;;;;;;2.52;0.25;;;;;;;20.94;28.27;100630.48;1804048;77;22899;-93
2021/05/11 11:26:01;;;;;;;1.10;0.25;;;;;;;20.96;28.18;100607.20;1804239;77;23135;-93
2021/05/11 11:28:48;;;;;;;3.20;0.47;;;;;;;20.99;28.22;100620.27;1748722;80;21173;-90
2021/05/11 11:31:50;;;;;;;0.40;0.20;;;;;;;21.14;28.58;100620.45;1799824;78;23144;-91
2021/05/11 11:34:36;;;;;;;0.95;0.30;;;;;;;21.14;28.36;100617.75;1695250;81;21213;-93
2021/05/11 11:37:13;;;;;;;3.85;0.10;;;;;;;21.25;28.42;100607.02;1782655;79;23980;-93
2021/05/11 11:40:01;;;;;;;0.57;0.20;;;;;;;21.28;28.26;100610.05;1650151;85;21162;-93
2021/05/11 11:42:59;;;;;;;0.85;0.20;;;;;;;21.35;28.39;100597.13;1802921;78;23070;-92
2021/05/11 11:45:44;;;;;;;0.98;0.33;;;;;;;21.30;28.38;100599.77;1715467;80;21135;-93
2021/05/11 11:48:21;;;;;;;1.30;0.35;;;;;;;21.35;28.43;100592.25;1798112;79;23161;-94
2021/05/11 11:50:59;;;;;;;0.30;0.20;;;;;;;21.38;28.84;100587.68;1816216;79;22425;-93
2021/05/11 11:53:37;;;;;;;1.15;0.10;;;;;;;21.41;28.92;100589.86;1794802;78;22878;-91
2021/05/11 11:56:36;;;;;;;0.85;0.25;;;;;;;21.47;28.88;100588.06;1786348;77;22977;-91
2021/05/11 11:59:19;;;;;;;2.08;0.20;;;;;;;21.53;29.03;100585.16;1817237;78;23621;-93
2021/05/11 12:02:03;;;;;;;0.37;0.20;;;;;;;21.53;29.20;100582.45;1778145;78;22830;-93
2021/05/11 12:05:10;;;;;;;0.40;0.20;;;;;;;21.56;29.31;100585.17;1798877;77;22939;-87
2021/05/11 12:10:30;;;;;;;0.30;0.30;;;;;;;21.59;28.97;100576.54;1768192;79;22343;-93
2021/05/11 12:13:13;;;;;;;0.80;0.28;;;;;;;21.58;28.87;100578.41;1753766;79;23000;-93
2021/05/11 12:16:17;;;;;;;8.40;0.40;;;;;;;21.61;29.17;100579.81;1800674;78;23172;-93
2021/05/11 12:22:05;;;;;;;2.85;0.30;;;;;;;21.66;29.42;100576.31;1781974;77;27949;-93
2021/05/11 12:25:12;;;;;;;1.98;1.35;;;;;;;22.01;29.39;100567.69;1736680;79;28952;-92
2021/05/11 12:28:06;;;;;;;0.70;0.30;;;;;;;22.31;28.77;100565.77;1771683;78;23131;-90
2021/05/11 12:30:43;;;;;;;0.40;0.20;;;;;;;22.34;28.92;100561.73;1765610;79;22236;-93
2021/05/11 12:33:43;;;;;;;2.27;0.30;;;;;;;22.26;29.01;100560.30;1884579;73;22991;-93
2021/05/11 12:36:47;;;;;;;3.40;0.30;;;;;;;22.19;29.13;100558.86;1845173;77;24272;-93
2021/05/11 12:42:45;;;;;;;2.75;0.37;;;;;;;22.03;29.19;100554.67;1787686;78;23371;-93
2021/05/11 12:45:21;;;;;;;1.40;0.20;;;;;;;22.01;29.21;100549.23;1783604;75;28417;-93
2021/05/11 12:48:04;;;;;;;3.20;0.30;;;;;;;22.23;28.76;100539.09;1860092;76;23027;-91
2021/05/11 12:50:46;;;;;;;1.02;0.10;;;;;;;22.34;28.89;100531.87;1751688;79;23105;-92
2021/05/11 12:53:48;;;;;;;3.40;0.20;;;;;;;22.29;29.32;100532.63;1798041;78;23616;-92
2021/05/11 12:59:14;;;;;;;3.42;0.20;;;;;;;22.28;28.91;100516.60;1759278;79;23148;-92
2021/05/11 13:17:15;;;;;;;2.50;0.20;;;;;;;22.45;29.05;100508.28;1790725;79;23542;-92
2021/05/11 13:20:26;;;;;;;2.67;0.28;;;;;;;22.44;29.35;100490.37;1757180;80;23608;-92
2021/05/11 13:36:25;;;;;;;1.05;0.20;;;;;;;22.50;29.42;100479.80;1803843;78;23005;-93
2021/05/11 13:39:21;;;;;;;1.25;0.10;;;;;;;22.53;29.34;100482.00;1794093;78;23055;-93
2021/05/11 13:41:56;;;;;;;2.62;0.20;;;;;;;22.55;29.14;100483.91;1772323;79;23442;-92
2021/05/11 13:44:41;;;;;;;1.37;0.10;;;;;;;22.57;29.04;100480.93;1912913;74;23441;-92
2021/05/11 14:04:07;;;;;;;1.07;0.20;;;;;;;22.57;29.23;100477.66;1761273;79;23599;-91
2021/05/11 14:06:43;;;;;;;15.70;0.78;;;;;;;22.62;29.15;100469.55;1776484;79;23079;-93
2021/05/11 14:09:18;;;;;;;1.15;0.20;;;;;;;22.67;29.01;100472.27;1800575;79;22969;-91
2021/05/11 14:12:12;;;;;;;3.70;0.40;;;;;;;22.72;29.05;100470.94;1802318;77;22908;-93
2021/05/11 14:14:49;;;;;;;1.12;0.28;;;;;;;22.79;29.05;100469.31;1761870;80;24929;-91
2021/05/11 14:17:25;;;;;;;6.47;0.28;;;;;;;22.84;28.96;100464.45;1779769;79;23173;-92
2021/05/11 14:20:22;;;;;;;3.83;0.20;;;;;;;22.85;29.02;100467.42;1790137;79;22943;-93
2021/05/11 14:23:17;;;;;;;0.45;0.15;;;;;;;22.85;29.01;100455.20;1792350;78;23146;-94
2021/05/11 14:25:51;;;;;;;1.55;0.47;;;;;;;22.87;29.51;100459.84;1814021;77;23084;-91
2021/05/11 14:28:46;;;;;;;4.05;0.30;;;;;;;22.90;29.33;100449.78;1797963;79;22946;-93
2021/05/11 14:31:27;;;;;;;1.95;0.47;;;;;;;22.93;29.42;100443.83;1772623;79;22990;-93
2021/05/11 14:34:05;;;;;;;3.92;0.40;;;;;;;22.99;29.42;100448.73;1737234;79;22897;-94
2021/05/11 14:36:46;;;;;;;1.45;0.17;;;;;;;23.05;29.67;100449.84;1799181;78;23611;-92
2021/05/11 14:39:41;;;;;;;7.55;0.23;;;;;;;23.13;29.80;100442.54;1793356;78;23573;-92
2021/05/11 14:42:17;;;;;;;3.08;0.55;;;;;;;23.17;29.85;100440.63;1756088;79;23101;-92
2021/05/11 14:44:54;;;;;;;2.87;0.30;;;;;;;23.24;29.85;100446.62;1801459;77;22991;-92
2021/05/11 14:47:31;;;;;;;1.20;0.40;;;;;;;23.28;29.83;100433.59;1841324;77;23965;-92
2021/05/11 14:50:25;;;;;;;2.00;0.40;;;;;;;23.36;30.03;100436.83;1787454;78;22985;-93
2021/05/11 14:53:15;;;;;;;1.85;0.20;;;;;;;23.39;29.91;100434.94;1810956;79;23577;-92
2021/05/11 14:56:01;;;;;;;0.50;0.20;;;;;;;23.39;29.67;100446.63;1792138;78;21500;-93
2021/05/11 14:58:36;;;;;;;3.00;0.42;;;;;;;23.46;29.45;100433.58;1769670;79;22775;-93
2021/05/11 15:01:16;;;;;;;1.65;0.35;;;;;;;23.49;29.61;100434.95;1789477;79;23087;-93
2021/05/11 15:04:00;;;;;;;4.53;0.68;;;;;;;23.52;29.69;100422.16;1796488;79;23458;-91
2021/05/11 15:06:46;;;;;;;4.83;0.40;;;;;;;23.54;29.02;100419.97;1786246;80;21640;-93
2021/05/11 15:09:39;;;;;;;1.12;0.42;;;;;;;23.69;28.93;100423.23;1798641;78;23543;-94
2021/05/11 15:12:19;;;;;;;3.15;0.30;;;;;;;23.79;29.05;100440.95;1739121;79;23051;-92
2021/05/11 15:15:00;;;;;;;1.32;0.40;;;;;;;23.86;29.04;100440.10;1776348;79;22962;-93
2021/05/11 15:18:04;;;;;;;3.00;0.95;;;;;;;23.94;29.16;100408.81;1820626;77;23538;-93
2021/05/11 15:20:59;;;;;;;4.10;0.40;;;;;;;23.97;29.19;100421.05;1802883;78;23075;-91
2021/05/11 15:23:41;;;;;;;3.83;0.30;;;;;;;23.97;29.09;100429.22;1772886;79;22958;-93
2021/05/11 15:26:22;;;;;;;3.47;0.53;;;;;;;24.01;29.31;100413.95;1752638;79;23179;-92
2021/05/11 15:29:08;;;;;;;4.25;0.68;;;;;;;23.97;29.33;100417.77;1707714;82;21200;-93
2021/05/11 15:31:42;;;;;;;6.10;1.22;;;;;;;24.02;29.30;100406.87;1743445;79;23220;-93
2021/05/11 15:34:35;;;;;;;4.22;0.20;;;;;;;24.05;29.27;100416.39;1741574;78;22994;-93
2021/05/11 15:37:20;;;;;;;3.35;0.35;;;;;;;24.00;29.36;100426.76;1674236;83;21244;-92
2021/05/11 15:40:17;;;;;;;8.35;0.88;;;;;;;24.02;29.43;100410.16;1790153;78;23080;-93
2021/05/11 15:43:12;;;;;;;3.92;0.30;;;;;;;24.03;29.54;100406.33;1792022;78;23626;-93
2021/05/11 15:45:48;;;;;;;5.22;0.50;;;;;;;24.04;29.69;100403.88;1767143;78;22333;-92
2021/05/11 15:48:23;;;;;;;3.45;0.20;;;;;;;24.00;29.88;100419.95;1790360;78;22934;-92
2021/05/11 15:51:17;;;;;;;18.80;0.45;;;;;;;24.00;29.70;100424.59;1792265;78;23591;-93
2021/05/11 15:54:12;;;;;;;1.35;0.30;;;;;;;23.99;29.92;100412.05;1790003;78;23118;-93
2021/05/11 15:57:08;;;;;;;5.62;0.45;;;;;;;23.99;29.94;100407.97;1762325;78;23102;-91
2021/05/11 16:00:04;;;;;;;2.45;0.40;;;;;;;23.99;29.77;100410.70;1796800;78;23509;-92
2021/05/11 16:02:46;;;;;;;1.47;0.30;;;;;;;23.97;29.67;100410.16;1830378;76;23076;-92
2021/05/11 16:05:23;;;;;;;3.12;0.47;;;;;;;23.93;29.81;100403.09;1807726;78;23111;-93
2021/05/11 16:08:09;;;;;;;3.50;0.30;;;;;;;23.98;30.01;100395.44;1825969;76;23508;-92
2021/05/11 16:10:44;;;;;;;2.42;0.72;;;;;;;23.99;30.20;100407.42;1816777;79;23086;-90
2021/05/11 16:13:30;;;;;;;6.67;0.30;;;;;;;23.76;30.22;100372.06;1801349;78;21236;-92
2021/05/11 16:16:13;;;;;;;3.00;0.30;;;;;;;24.00;30.19;100402.81;1800780;79;22996;-92
2021/05/11 16:19:07;;;;;;;2.95;0.40;;;;;;;24.00;30.15;100394.09;1788215;79;23432;-92
2021/05/11 16:22:01;;;;;;;5.50;0.85;;;;;;;23.99;30.08;100389.72;1784020;75;22978;-92
2021/05/11 16:24:34;;;;;;;1.95;0.45;;;;;;;23.99;30.15;100388.91;1740263;80;23022;-92
2021/05/11 16:27:08;;;;;;;4.78;0.30;;;;;;;23.96;30.23;100388.09;1806182;78;22834;-93
2021/05/11 16:29:55;;;;;;;2.87;0.20;;;;;;;23.87;30.45;100385.95;1695124;83;21180;-92
2021/05/11 16:32:49;;;;;;;5.55;0.78;;;;;;;23.85;30.51;100394.13;1834693;75;22874;-91
2021/05/11 16:35:31;;;;;;;4.15;0.35;;;;;;;23.80;30.60;100395.50;1726595;81;23062;-91
2021/05/11 16:38:27;;;;;;;9.68;0.65;;;;;;;23.76;30.82;100392.47;1868325;75;22981;-92
2021/05/11 16:41:07;;;;;;;1.60;0.55;;;;;;;23.71;30.84;100389.75;1825986;77;23524;-93
2021/05/11 16:43:43;;;;;;;5.90;0.50;;;;;;;23.69;31.00;100390.58;1772593;77;28329;-94
2021/05/11 16:46:25;;;;;;;1.87;0.40;;;;;;;23.89;31.09;100387.84;1776517;78;23027;-92
2021/05/11 16:49:19;;;;;;;3.75;0.50;;;;;;;23.90;31.25;100393.58;1779583;78;23044;-92
2021/05/11 16:51:57;;;;;;;2.58;0.50;;;;;;;23.77;31.20;100398.72;1762969;79;22799;-93
2021/05/11 16:54:42;;;;;;;8.08;0.62;;;;;;;23.64;31.47;100394.14;1722701;82;21302;-93
2021/05/11 16:57:16;;;;;;;8.78;1.05;;;;;;;23.58;31.88;100397.12;1709002;79;22866;-92
2021/05/11 16:59:52;;;;;;;1.72;0.62;;;;;;;23.51;31.86;100394.70;1819945;77;23074;-94
2021/05/11 17:02:25;;;;;;;5.53;0.98;;;;;;;23.44;31.96;100400.95;1814062;77;23059;-93
2021/05/11 17:05:10;;;;;;;2.35;0.85;;;;;;;23.34;32.26;100394.97;1786151;79;23611;-91
2021/05/11 17:07:54;;;;;;;2.85;0.90;;;;;;;23.24;32.54;100393.59;1838316;76;23054;-93
2021/05/11 17:10:41;;;;;;;3.55;0.85;;;;;;;23.13;32.53;100399.56;1821257;78;21189;-91
2021/05/11 17:13:39;;;;;;;8.05;1.00;;;;;;;23.09;32.68;100387.60;1738707;81;23683;-94
2021/05/11 17:16:32;;;;;;;1.72;0.57;;;;;;;23.04;32.81;100388.42;1774848;78;23135;-92
2021/05/11 17:19:06;;;;;;;3.35;0.60;;;;;;;23.01;32.88;100384.84;1797631;78;23387;-93
2021/05/11 17:21:39;;;;;;;3.75;0.70;;;;;;;22.99;32.96;100389.73;1759450;79;23131;-92
2021/05/11 17:24:33;;;;;;;3.17;0.50;;;;;;;22.98;33.12;100389.48;1777938;79;22997;-92
2021/05/11 17:27:11;;;;;;;5.12;0.93;;;;;;;22.94;33.24;100393.80;1774550;79;23033;-93
2021/05/11 17:29:53;;;;;;;3.10;0.55;;;;;;;22.89;33.69;100399.25;1794780;78;23542;-91
2021/05/11 17:32:48;;;;;;;5.80;1.02;;;;;;;22.81;33.86;100422.85;1789899;78;23115;-93
2021/05/11 17:35:23;;;;;;;3.33;1.17;;;;;;;22.72;33.94;100438.33;1729386;79;22854;-93
2021/05/11 17:38:10;;;;;;;5.83;2.50;;;;;;;22.65;34.82;100449.98;1699856;82;21169;-92